Terminal Aerodrome Forecast
Issued by NWS

Home | Current Version | Previous Version | Text Only | Print | Product List | Glossary On
Versions: 1 2 3 4 5 6 7 8 9 10 11 12 13 14 15 16 17 18 19 20
000
FTUS43 KOAX 251100
TAFCDR
TAF
KCDR 251120Z 2512/2612 33008KT P6SM SKC
     FM251600 05010G20KT P6SM SCT080
     FM252000 15011G22KT P6SM VCTS BKN080CB
     FM260200 15010KT P6SM SCT080=

USA.gov is the U.S. government's official web portal to all federal, state and local government web resources and services.